Atlasburg, Pennsylvania
Current Conditions -  °F | °C
As of 7:51 AM on Thursday 27 Nov 2014 (Local Time) from KPIT Reporting Station
Haze Haze  
Wind Chill: 31°   Ceiling: 4800
Heat Index: 31°   Visibility: 5mi
Dew Point: 28°   Wind: 3mph
Humidity: 89%   Direction: 270°W
Pressure: 30.03"   Gusts: NA
Location:  40.34°N, 80.38°W
Report Text: KPIT 271251Z 27003KT 5SM BR FEW029 OVC048 M01/M02 A3003 RMK AO2 SLP189 BINOVC T10061022
Loading
Personal Weather Stations






























Interactive Weather Map New forecast layout! Learn more

10-Day Weather Forecast

Advertisements
Track Severe Weather on mobile